sensor_id;sensor_type;location;lat;lon;timestamp;P1;durP1;ratioP1;P2;durP2;ratioP2
16813;SDS011;8524;57.650;11.926;2023-05-07T00:00:56;3.50;;;1.83;;
16813;SDS011;8524;57.650;11.926;2023-05-07T00:03:24;1.90;;;1.70;;
16813;SDS011;8524;57.650;11.926;2023-05-07T00:05:52;3.27;;;1.87;;
16813;SDS011;8524;57.650;11.926;2023-05-07T00:08:19;1.70;;;1.60;;
16813;SDS011;8524;57.650;11.926;2023-05-07T00:10:46;3.57;;;1.73;;
16813;SDS011;8524;57.650;11.926;2023-05-07T00:13:13;3.63;;;2.13;;
16813;SDS011;8524;57.650;11.926;2023-05-07T00:15:40;2.50;;;2.13;;
16813;SDS011;8524;57.650;11.926;2023-05-07T00:18:09;4.47;;;2.13;;
16813;SDS011;8524;57.650;11.926;2023-05-07T00:20:36;4.00;;;2.30;;
16813;SDS011;8524;57.650;11.926;2023-05-07T00:23:03;2.40;;;2.20;;
16813;SDS011;8524;57.650;11.926;2023-05-07T00:25:30;3.00;;;2.07;;
16813;SDS011;8524;57.650;11.926;2023-05-07T00:27:57;2.43;;;2.00;;
16813;SDS011;8524;57.650;11.926;2023-05-07T00:30:28;2.50;;;2.00;;
16813;SDS011;8524;57.650;11.926;2023-05-07T00:32:55;2.47;;;2.00;;
16813;SDS011;8524;57.650;11.926;2023-05-07T00:35:24;2.27;;;2.00;;
16813;SDS011;8524;57.650;11.926;2023-05-07T00:37:51;2.13;;;1.70;;
16813;SDS011;8524;57.650;11.926;2023-05-07T00:40:18;3.60;;;1.50;;
16813;SDS011;8524;57.650;11.926;2023-05-07T00:42:45;2.57;;;2.00;;
16813;SDS011;8524;57.650;11.926;2023-05-07T00:45:14;2.33;;;1.60;;
16813;SDS011;8524;57.650;11.926;2023-05-07T00:47:41;1.90;;;1.70;;
16813;SDS011;8524;57.650;11.926;2023-05-07T00:50:09;2.63;;;2.03;;
16813;SDS011;8524;57.650;11.926;2023-05-07T00:52:38;4.13;;;2.20;;
16813;SDS011;8524;57.650;11.926;2023-05-07T00:55:07;2.57;;;1.70;;
16813;SDS011;8524;57.650;11.926;2023-05-07T00:57:35;1.70;;;1.60;;
16813;SDS011;8524;57.650;11.926;2023-05-07T01:00:03;1.93;;;1.60;;
16813;SDS011;8524;57.650;11.926;2023-05-07T01:02:31;1.97;;;1.77;;
16813;SDS011;8524;57.650;11.926;2023-05-07T01:04:58;2.47;;;2.00;;
16813;SDS011;8524;57.650;11.926;2023-05-07T01:07:27;1.77;;;1.63;;
16813;SDS011;8524;57.650;11.926;2023-05-07T01:09:55;3.67;;;1.70;;
16813;SDS011;8524;57.650;11.926;2023-05-07T01:12:23;2.57;;;1.70;;
16813;SDS011;8524;57.650;11.926;2023-05-07T01:14:51;1.70;;;1.60;;
16813;SDS011;8524;57.650;11.926;2023-05-07T01:17:18;2.23;;;2.00;;
16813;SDS011;8524;57.650;11.926;2023-05-07T01:19:45;3.10;;;1.90;;
16813;SDS011;8524;57.650;11.926;2023-05-07T01:22:13;2.60;;;1.93;;
16813;SDS011;8524;57.650;11.926;2023-05-07T01:24:44;2.40;;;1.70;;
16813;SDS011;8524;57.650;11.926;2023-05-07T01:27:11;1.80;;;1.60;;
16813;SDS011;8524;57.650;11.926;2023-05-07T01:29:38;1.70;;;1.60;;
16813;SDS011;8524;57.650;11.926;2023-05-07T01:32:05;2.10;;;1.90;;
16813;SDS011;8524;57.650;11.926;2023-05-07T01:34:33;2.60;;;1.97;;
16813;SDS011;8524;57.650;11.926;2023-05-07T01:37:02;2.13;;;1.63;;
16813;SDS011;8524;57.650;11.926;2023-05-07T01:39:29;2.47;;;1.80;;
16813;SDS011;8524;57.650;11.926;2023-05-07T01:41:58;2.50;;;1.80;;
16813;SDS011;8524;57.650;11.926;2023-05-07T01:44:25;2.20;;;1.53;;
16813;SDS011;8524;57.650;11.926;2023-05-07T01:46:53;2.47;;;1.60;;
16813;SDS011;8524;57.650;11.926;2023-05-07T01:49:21;1.80;;;1.70;;
16813;SDS011;8524;57.650;11.926;2023-05-07T01:51:48;2.60;;;1.70;;
16813;SDS011;8524;57.650;11.926;2023-05-07T01:54:15;2.03;;;1.70;;
16813;SDS011;8524;57.650;11.926;2023-05-07T01:56:42;1.83;;;1.40;;
16813;SDS011;8524;57.650;11.926;2023-05-07T01:59:11;1.67;;;1.37;;
16813;SDS011;8524;57.650;11.926;2023-05-07T02:01:39;1.70;;;1.60;;
16813;SDS011;8524;57.650;11.926;2023-05-07T02:04:06;1.90;;;1.70;;
16813;SDS011;8524;57.650;11.926;2023-05-07T02:06:33;2.10;;;1.90;;
16813;SDS011;8524;57.650;11.926;2023-05-07T02:09:00;3.03;;;1.80;;
16813;SDS011;8524;57.650;11.926;2023-05-07T02:11:27;2.33;;;1.77;;
16813;SDS011;8524;57.650;11.926;2023-05-07T02:13:54;1.73;;;1.63;;
16813;SDS011;8524;57.650;11.926;2023-05-07T02:16:22;2.03;;;1.70;;
16813;SDS011;8524;57.650;11.926;2023-05-07T02:18:49;1.90;;;1.70;;
16813;SDS011;8524;57.650;11.926;2023-05-07T02:21:16;1.60;;;1.50;;
16813;SDS011;8524;57.650;11.926;2023-05-07T02:23:43;1.80;;;1.63;;
16813;SDS011;8524;57.650;11.926;2023-05-07T02:26:10;1.80;;;1.67;;
16813;SDS011;8524;57.650;11.926;2023-05-07T02:28:37;1.57;;;1.47;;
16813;SDS011;8524;57.650;11.926;2023-05-07T02:31:04;1.87;;;1.33;;
16813;SDS011;8524;57.650;11.926;2023-05-07T02:33:33;2.60;;;1.73;;
16813;SDS011;8524;57.650;11.926;2023-05-07T02:36:08;2.03;;;1.50;;
16813;SDS011;8524;57.650;11.926;2023-05-07T02:38:36;2.27;;;1.37;;
16813;SDS011;8524;57.650;11.926;2023-05-07T02:41:03;1.63;;;1.53;;
16813;SDS011;8524;57.650;11.926;2023-05-07T02:43:30;1.83;;;1.40;;
16813;SDS011;8524;57.650;11.926;2023-05-07T02:46:00;1.50;;;1.40;;
16813;SDS011;8524;57.650;11.926;2023-05-07T02:48:28;1.57;;;1.47;;
16813;SDS011;8524;57.650;11.926;2023-05-07T02:50:56;2.53;;;1.43;;
16813;SDS011;8524;57.650;11.926;2023-05-07T02:53:24;2.20;;;1.47;;
16813;SDS011;8524;57.650;11.926;2023-05-07T02:55:51;1.60;;;1.50;;
16813;SDS011;8524;57.650;11.926;2023-05-07T02:58:19;2.50;;;1.67;;
16813;SDS011;8524;57.650;11.926;2023-05-07T03:00:46;2.60;;;1.70;;
16813;SDS011;8524;57.650;11.926;2023-05-07T03:03:13;1.80;;;1.70;;
16813;SDS011;8524;57.650;11.926;2023-05-07T03:05:40;1.87;;;1.57;;
16813;SDS011;8524;57.650;11.926;2023-05-07T03:08:09;1.67;;;1.23;;
16813;SDS011;8524;57.650;11.926;2023-05-07T03:10:36;3.57;;;1.90;;
16813;SDS011;8524;57.650;11.926;2023-05-07T03:13:03;1.90;;;1.80;;
16813;SDS011;8524;57.650;11.926;2023-05-07T03:15:30;1.57;;;1.30;;
16813;SDS011;8524;57.650;11.926;2023-05-07T03:17:57;1.53;;;1.43;;
16813;SDS011;8524;57.650;11.926;2023-05-07T03:20:24;2.30;;;1.60;;
16813;SDS011;8524;57.650;11.926;2023-05-07T03:22:51;1.63;;;1.53;;
16813;SDS011;8524;57.650;11.926;2023-05-07T03:25:20;2.07;;;1.80;;
16813;SDS011;8524;57.650;11.926;2023-05-07T03:27:47;2.73;;;1.77;;
16813;SDS011;8524;57.650;11.926;2023-05-07T03:30:14;2.50;;;1.80;;
16813;SDS011;8524;57.650;11.926;2023-05-07T03:32:41;1.77;;;1.60;;
16813;SDS011;8524;57.650;11.926;2023-05-07T03:35:08;1.87;;;1.77;;
16813;SDS011;8524;57.650;11.926;2023-05-07T03:37:35;1.77;;;1.67;;
16813;SDS011;8524;57.650;11.926;2023-05-07T03:40:04;1.80;;;1.57;;
16813;SDS011;8524;57.650;11.926;2023-05-07T03:42:34;1.70;;;1.60;;
16813;SDS011;8524;57.650;11.926;2023-05-07T03:45:01;2.53;;;1.90;;
16813;SDS011;8524;57.650;11.926;2023-05-07T03:47:28;2.47;;;1.70;;
16813;SDS011;8524;57.650;11.926;2023-05-07T03:49:55;3.00;;;1.47;;
16813;SDS011;8524;57.650;11.926;2023-05-07T03:52:22;1.97;;;1.60;;
16813;SDS011;8524;57.650;11.926;2023-05-07T03:54:52;1.50;;;1.40;;
16813;SDS011;8524;57.650;11.926;2023-05-07T03:57:19;1.60;;;1.50;;
16813;SDS011;8524;57.650;11.926;2023-05-07T03:59:47;3.17;;;1.70;;
16813;SDS011;8524;57.650;11.926;2023-05-07T04:02:14;1.60;;;1.50;;
16813;SDS011;8524;57.650;11.926;2023-05-07T04:04:41;2.43;;;1.50;;
16813;SDS011;8524;57.650;11.926;2023-05-07T04:07:08;1.83;;;1.30;;
16813;SDS011;8524;57.650;11.926;2023-05-07T04:09:36;1.97;;;1.23;;
16813;SDS011;8524;57.650;11.926;2023-05-07T04:12:03;2.27;;;1.50;;
16813;SDS011;8524;57.650;11.926;2023-05-07T04:14:30;1.70;;;1.60;;
16813;SDS011;8524;57.650;11.926;2023-05-07T04:16:59;2.03;;;1.70;;
16813;SDS011;8524;57.650;11.926;2023-05-07T04:19:27;3.03;;;1.30;;
16813;SDS011;8524;57.650;11.926;2023-05-07T04:21:54;1.60;;;1.50;;
16813;SDS011;8524;57.650;11.926;2023-05-07T04:24:21;1.60;;;1.50;;
16813;SDS011;8524;57.650;11.926;2023-05-07T04:26:48;2.27;;;1.50;;
16813;SDS011;8524;57.650;11.926;2023-05-07T04:29:16;1.50;;;1.40;;
16813;SDS011;8524;57.650;11.926;2023-05-07T04:31:43;2.57;;;1.47;;
16813;SDS011;8524;57.650;11.926;2023-05-07T04:34:12;1.80;;;1.33;;
16813;SDS011;8524;57.650;11.926;2023-05-07T04:36:39;1.88;;;1.40;;
16813;SDS011;8524;57.650;11.926;2023-05-07T04:39:06;1.40;;;1.30;;
16813;SDS011;8524;57.650;11.926;2023-05-07T04:41:35;1.87;;;1.50;;
16813;SDS011;8524;57.650;11.926;2023-05-07T04:44:02;2.57;;;1.50;;
16813;SDS011;8524;57.650;11.926;2023-05-07T04:46:31;1.83;;;1.60;;
16813;SDS011;8524;57.650;11.926;2023-05-07T04:48:58;1.63;;;1.50;;
16813;SDS011;8524;57.650;11.926;2023-05-07T04:51:27;1.57;;;1.30;;
16813;SDS011;8524;57.650;11.926;2023-05-07T04:53:54;1.30;;;1.13;;
16813;SDS011;8524;57.650;11.926;2023-05-07T04:56:21;1.40;;;1.30;;
16813;SDS011;8524;57.650;11.926;2023-05-07T04:58:48;1.63;;;1.30;;
16813;SDS011;8524;57.650;11.926;2023-05-07T05:01:15;2.27;;;1.20;;
16813;SDS011;8524;57.650;11.926;2023-05-07T05:03:42;1.97;;;1.43;;
16813;SDS011;8524;57.650;11.926;2023-05-07T05:06:09;1.90;;;1.23;;
16813;SDS011;8524;57.650;11.926;2023-05-07T05:08:38;2.97;;;1.40;;
16813;SDS011;8524;57.650;11.926;2023-05-07T05:11:05;2.07;;;1.20;;
16813;SDS011;8524;57.650;11.926;2023-05-07T05:13:32;1.73;;;1.63;;
16813;SDS011;8524;57.650;11.926;2023-05-07T05:15:59;1.37;;;1.27;;
16813;SDS011;8524;57.650;11.926;2023-05-07T05:18:26;1.33;;;1.20;;
16813;SDS011;8524;57.650;11.926;2023-05-07T05:20:53;2.27;;;1.10;;
16813;SDS011;8524;57.650;11.926;2023-05-07T05:23:20;1.47;;;1.37;;
16813;SDS011;8524;57.650;11.926;2023-05-07T05:25:48;2.47;;;1.60;;
16813;SDS011;8524;57.650;11.926;2023-05-07T05:28:15;1.97;;;1.30;;
16813;SDS011;8524;57.650;11.926;2023-05-07T05:30:42;1.50;;;1.23;;
16813;SDS011;8524;57.650;11.926;2023-05-07T05:33:09;2.67;;;1.53;;
16813;SDS011;8524;57.650;11.926;2023-05-07T05:35:36;1.73;;;1.40;;
16813;SDS011;8524;57.650;11.926;2023-05-07T05:38:03;2.30;;;1.33;;
16813;SDS011;8524;57.650;11.926;2023-05-07T05:40:30;2.83;;;1.30;;
16813;SDS011;8524;57.650;11.926;2023-05-07T05:42:59;1.47;;;1.20;;
16813;SDS011;8524;57.650;11.926;2023-05-07T05:45:26;1.43;;;1.00;;
16813;SDS011;8524;57.650;11.926;2023-05-07T05:47:55;1.53;;;1.23;;
16813;SDS011;8524;57.650;11.926;2023-05-07T05:50:22;1.93;;;1.10;;
16813;SDS011;8524;57.650;11.926;2023-05-07T05:52:49;1.67;;;1.37;;
16813;SDS011;8524;57.650;11.926;2023-05-07T05:55:17;2.00;;;1.40;;
16813;SDS011;8524;57.650;11.926;2023-05-07T05:57:44;1.27;;;1.17;;
16813;SDS011;8524;57.650;11.926;2023-05-07T06:00:12;1.23;;;1.10;;
16813;SDS011;8524;57.650;11.926;2023-05-07T06:02:41;1.50;;;1.40;;
16813;SDS011;8524;57.650;11.926;2023-05-07T06:05:08;1.90;;;1.10;;
16813;SDS011;8524;57.650;11.926;2023-05-07T06:07:35;2.07;;;1.23;;
16813;SDS011;8524;57.650;11.926;2023-05-07T06:10:02;3.17;;;1.40;;
16813;SDS011;8524;57.650;11.926;2023-05-07T06:12:30;1.40;;;1.30;;
16813;SDS011;8524;57.650;11.926;2023-05-07T06:14:57;1.40;;;1.30;;
16813;SDS011;8524;57.650;11.926;2023-05-07T06:17:26;1.20;;;1.10;;
16813;SDS011;8524;57.650;11.926;2023-05-07T06:19:52;1.20;;;1.00;;
16813;SDS011;8524;57.650;11.926;2023-05-07T06:22:20;1.47;;;1.37;;
16813;SDS011;8524;57.650;11.926;2023-05-07T06:24:47;2.03;;;1.30;;
16813;SDS011;8524;57.650;11.926;2023-05-07T06:27:14;2.10;;;1.47;;
16813;SDS011;8524;57.650;11.926;2023-05-07T06:29:41;1.30;;;1.20;;
16813;SDS011;8524;57.650;11.926;2023-05-07T06:32:08;1.50;;;1.20;;
16813;SDS011;8524;57.650;11.926;2023-05-07T06:34:37;2.53;;;1.23;;
16813;SDS011;8524;57.650;11.926;2023-05-07T06:37:05;1.97;;;1.43;;
16813;SDS011;8524;57.650;11.926;2023-05-07T06:39:32;2.03;;;1.40;;
16813;SDS011;8524;57.650;11.926;2023-05-07T06:41:59;1.87;;;1.30;;
16813;SDS011;8524;57.650;11.926;2023-05-07T06:44:26;2.50;;;1.40;;
16813;SDS011;8524;57.650;11.926;2023-05-07T06:46:53;2.87;;;1.40;;
16813;SDS011;8524;57.650;11.926;2023-05-07T06:49:20;1.90;;;1.30;;
16813;SDS011;8524;57.650;11.926;2023-05-07T06:51:48;1.30;;;1.20;;
16813;SDS011;8524;57.650;11.926;2023-05-07T06:54:16;1.40;;;1.30;;
16813;SDS011;8524;57.650;11.926;2023-05-07T06:56:43;1.47;;;1.23;;
16813;SDS011;8524;57.650;11.926;2023-05-07T06:59:10;1.70;;;1.40;;
16813;SDS011;8524;57.650;11.926;2023-05-07T07:01:37;1.53;;;1.40;;
16813;SDS011;8524;57.650;11.926;2023-05-07T07:04:04;1.55;;;1.45;;
16813;SDS011;8524;57.650;11.926;2023-05-07T07:06:31;2.97;;;1.50;;
16813;SDS011;8524;57.650;11.926;2023-05-07T07:08:59;2.93;;;1.30;;
16813;SDS011;8524;57.650;11.926;2023-05-07T07:11:27;1.73;;;1.57;;
16813;SDS011;8524;57.650;11.926;2023-05-07T07:13:54;2.13;;;1.40;;
16813;SDS011;8524;57.650;11.926;2023-05-07T07:16:21;1.90;;;1.17;;
16813;SDS011;8524;57.650;11.926;2023-05-07T07:18:48;1.50;;;1.40;;
16813;SDS011;8524;57.650;11.926;2023-05-07T07:21:15;1.97;;;1.40;;
16813;SDS011;8524;57.650;11.926;2023-05-07T07:23:42;1.97;;;1.40;;
16813;SDS011;8524;57.650;11.926;2023-05-07T07:26:10;1.50;;;1.40;;
16813;SDS011;8524;57.650;11.926;2023-05-07T07:28:41;1.83;;;1.47;;
16813;SDS011;8524;57.650;11.926;2023-05-07T07:31:09;1.90;;;1.50;;
16813;SDS011;8524;57.650;11.926;2023-05-07T07:33:36;1.50;;;1.40;;
16813;SDS011;8524;57.650;11.926;2023-05-07T07:36:04;2.00;;;1.70;;
16813;SDS011;8524;57.650;11.926;2023-05-07T07:38:32;2.10;;;1.40;;
16813;SDS011;8524;57.650;11.926;2023-05-07T07:40:59;2.80;;;1.70;;
16813;SDS011;8524;57.650;11.926;2023-05-07T07:43:27;2.80;;;1.30;;
16813;SDS011;8524;57.650;11.926;2023-05-07T07:45:54;2.10;;;1.60;;
16813;SDS011;8524;57.650;11.926;2023-05-07T07:48:21;2.00;;;1.80;;
16813;SDS011;8524;57.650;11.926;2023-05-07T07:50:49;2.07;;;1.60;;
16813;SDS011;8524;57.650;11.926;2023-05-07T07:53:16;2.13;;;1.53;;
16813;SDS011;8524;57.650;11.926;2023-05-07T07:55:43;2.63;;;1.80;;
16813;SDS011;8524;57.650;11.926;2023-05-07T07:58:11;3.07;;;1.60;;
16813;SDS011;8524;57.650;11.926;2023-05-07T08:00:39;1.93;;;1.50;;
16813;SDS011;8524;57.650;11.926;2023-05-07T08:03:08;2.87;;;1.60;;
16813;SDS011;8524;57.650;11.926;2023-05-07T08:05:36;2.13;;;1.50;;
16813;SDS011;8524;57.650;11.926;2023-05-07T08:08:03;4.10;;;1.70;;
16813;SDS011;8524;57.650;11.926;2023-05-07T08:10:31;3.20;;;1.50;;
16813;SDS011;8524;57.650;11.926;2023-05-07T08:13:00;1.60;;;1.50;;
16813;SDS011;8524;57.650;11.926;2023-05-07T08:15:28;1.40;;;1.30;;
16813;SDS011;8524;57.650;11.926;2023-05-07T08:17:57;1.83;;;1.47;;
16813;SDS011;8524;57.650;11.926;2023-05-07T08:20:25;2.63;;;1.70;;
16813;SDS011;8524;57.650;11.926;2023-05-07T08:22:52;2.20;;;1.60;;
16813;SDS011;8524;57.650;11.926;2023-05-07T08:25:19;1.80;;;1.60;;
16813;SDS011;8524;57.650;11.926;2023-05-07T08:27:46;3.20;;;1.53;;
16813;SDS011;8524;57.650;11.926;2023-05-07T08:30:13;3.67;;;1.50;;
16813;SDS011;8524;57.650;11.926;2023-05-07T08:32:41;2.73;;;1.50;;
16813;SDS011;8524;57.650;11.926;2023-05-07T08:35:09;2.80;;;1.70;;
16813;SDS011;8524;57.650;11.926;2023-05-07T08:37:36;3.17;;;1.57;;
16813;SDS011;8524;57.650;11.926;2023-05-07T08:40:04;1.83;;;1.43;;
16813;SDS011;8524;57.650;11.926;2023-05-07T08:42:32;1.30;;;1.20;;
16813;SDS011;8524;57.650;11.926;2023-05-07T08:45:03;2.87;;;1.57;;
16813;SDS011;8524;57.650;11.926;2023-05-07T08:47:34;2.43;;;1.70;;
16813;SDS011;8524;57.650;11.926;2023-05-07T08:50:06;1.60;;;1.50;;
16813;SDS011;8524;57.650;11.926;2023-05-07T08:52:35;3.70;;;1.80;;
16813;SDS011;8524;57.650;11.926;2023-05-07T08:55:03;1.60;;;1.50;;
16813;SDS011;8524;57.650;11.926;2023-05-07T08:57:31;1.57;;;1.40;;
16813;SDS011;8524;57.650;11.926;2023-05-07T08:59:58;1.50;;;1.33;;
16813;SDS011;8524;57.650;11.926;2023-05-07T09:02:25;1.73;;;1.63;;
16813;SDS011;8524;57.650;11.926;2023-05-07T09:04:52;1.63;;;1.53;;
16813;SDS011;8524;57.650;11.926;2023-05-07T09:07:19;3.33;;;1.50;;
16813;SDS011;8524;57.650;11.926;2023-05-07T09:09:48;1.50;;;1.40;;
16813;SDS011;8524;57.650;11.926;2023-05-07T09:12:15;1.77;;;1.50;;
16813;SDS011;8524;57.650;11.926;2023-05-07T09:14:42;2.23;;;1.60;;
16813;SDS011;8524;57.650;11.926;2023-05-07T09:17:09;3.17;;;1.40;;
16813;SDS011;8524;57.650;11.926;2023-05-07T09:19:36;1.47;;;1.27;;
16813;SDS011;8524;57.650;11.926;2023-05-07T09:22:03;2.07;;;1.43;;
16813;SDS011;8524;57.650;11.926;2023-05-07T09:24:32;1.60;;;1.50;;
16813;SDS011;8524;57.650;11.926;2023-05-07T09:27:04;2.53;;;1.30;;
16813;SDS011;8524;57.650;11.926;2023-05-07T09:29:31;2.40;;;1.60;;
16813;SDS011;8524;57.650;11.926;2023-05-07T09:32:00;2.27;;;1.70;;
16813;SDS011;8524;57.650;11.926;2023-05-07T09:34:28;1.67;;;1.40;;
16813;SDS011;8524;57.650;11.926;2023-05-07T09:36:56;1.70;;;1.60;;
16813;SDS011;8524;57.650;11.926;2023-05-07T09:39:24;1.60;;;1.50;;
16813;SDS011;8524;57.650;11.926;2023-05-07T09:41:52;1.30;;;1.20;;
16813;SDS011;8524;57.650;11.926;2023-05-07T09:44:21;2.23;;;1.50;;
16813;SDS011;8524;57.650;11.926;2023-05-07T09:46:51;1.67;;;1.50;;
16813;SDS011;8524;57.650;11.926;2023-05-07T09:49:21;2.13;;;1.30;;
16813;SDS011;8524;57.650;11.926;2023-05-07T09:51:50;1.57;;;1.40;;
16813;SDS011;8524;57.650;11.926;2023-05-07T09:54:18;1.30;;;1.20;;
16813;SDS011;8524;57.650;11.926;2023-05-07T09:56:45;1.80;;;1.30;;
16813;SDS011;8524;57.650;11.926;2023-05-07T09:59:15;1.70;;;1.20;;
16813;SDS011;8524;57.650;11.926;2023-05-07T10:01:44;1.87;;;1.30;;
16813;SDS011;8524;57.650;11.926;2023-05-07T10:04:12;1.53;;;1.23;;
16813;SDS011;8524;57.650;11.926;2023-05-07T10:06:40;1.60;;;1.17;;
16813;SDS011;8524;57.650;11.926;2023-05-07T10:09:07;1.30;;;1.10;;
16813;SDS011;8524;57.650;11.926;2023-05-07T10:11:36;1.67;;;1.30;;
16813;SDS011;8524;57.650;11.926;2023-05-07T10:14:04;2.03;;;1.30;;
16813;SDS011;8524;57.650;11.926;2023-05-07T10:16:33;2.10;;;1.37;;
16813;SDS011;8524;57.650;11.926;2023-05-07T10:19:03;2.30;;;1.40;;
16813;SDS011;8524;57.650;11.926;2023-05-07T10:21:31;1.53;;;1.43;;
16813;SDS011;8524;57.650;11.926;2023-05-07T10:24:03;1.40;;;1.30;;
16813;SDS011;8524;57.650;11.926;2023-05-07T10:26:33;2.80;;;1.50;;
16813;SDS011;8524;57.650;11.926;2023-05-07T10:29:04;1.73;;;1.37;;
16813;SDS011;8524;57.650;11.926;2023-05-07T10:31:42;1.40;;;1.30;;
16813;SDS011;8524;57.650;11.926;2023-05-07T10:34:23;1.80;;;1.40;;
16813;SDS011;8524;57.650;11.926;2023-05-07T10:36:52;2.77;;;1.70;;
16813;SDS011;8524;57.650;11.926;2023-05-07T10:39:21;2.00;;;1.20;;
16813;SDS011;8524;57.650;11.926;2023-05-07T10:41:49;1.47;;;1.23;;
16813;SDS011;8524;57.650;11.926;2023-05-07T10:44:25;1.30;;;1.20;;
16813;SDS011;8524;57.650;11.926;2023-05-07T10:47:04;1.47;;;1.37;;
16813;SDS011;8524;57.650;11.926;2023-05-07T10:49:35;3.23;;;1.50;;
16813;SDS011;8524;57.650;11.926;2023-05-07T10:52:13;1.30;;;1.20;;
16813;SDS011;8524;57.650;11.926;2023-05-07T10:54:42;1.30;;;1.20;;
16813;SDS011;8524;57.650;11.926;2023-05-07T11:00:02;2.35;;;1.40;;
16813;SDS011;8524;57.650;11.926;2023-05-07T11:05:34;1.50;;;1.40;;
16813;SDS011;8524;57.650;11.926;2023-05-07T11:08:02;1.37;;;1.27;;
16813;SDS011;8524;57.650;11.926;2023-05-07T11:10:49;1.50;;;1.20;;
16813;SDS011;8524;57.650;11.926;2023-05-07T11:13:18;1.90;;;1.13;;
16813;SDS011;8524;57.650;11.926;2023-05-07T11:16:05;1.30;;;1.20;;
16813;SDS011;8524;57.650;11.926;2023-05-07T11:18:47;2.00;;;1.40;;
16813;SDS011;8524;57.650;11.926;2023-05-07T11:24:02;1.50;;;1.20;;
16813;SDS011;8524;57.650;11.926;2023-05-07T11:26:30;2.03;;;1.40;;
16813;SDS011;8524;57.650;11.926;2023-05-07T11:29:10;1.50;;;1.40;;
16813;SDS011;8524;57.650;11.926;2023-05-07T11:31:38;3.17;;;1.27;;
16813;SDS011;8524;57.650;11.926;2023-05-07T11:34:05;1.93;;;1.50;;
16813;SDS011;8524;57.650;11.926;2023-05-07T11:36:35;1.83;;;1.30;;
16813;SDS011;8524;57.650;11.926;2023-05-07T11:39:22;1.80;;;1.37;;
16813;SDS011;8524;57.650;11.926;2023-05-07T11:41:51;1.40;;;1.10;;
16813;SDS011;8524;57.650;11.926;2023-05-07T11:44:18;1.60;;;1.50;;
16813;SDS011;8524;57.650;11.926;2023-05-07T11:46:45;1.40;;;1.30;;
16813;SDS011;8524;57.650;11.926;2023-05-07T11:49:12;1.77;;;1.20;;
16813;SDS011;8524;57.650;11.926;2023-05-07T11:51:41;1.83;;;1.40;;
16813;SDS011;8524;57.650;11.926;2023-05-07T11:54:10;1.40;;;1.30;;
16813;SDS011;8524;57.650;11.926;2023-05-07T11:56:38;1.47;;;1.37;;
16813;SDS011;8524;57.650;11.926;2023-05-07T11:59:05;1.80;;;1.30;;
16813;SDS011;8524;57.650;11.926;2023-05-07T12:01:34;2.13;;;1.43;;
16813;SDS011;8524;57.650;11.926;2023-05-07T12:04:02;2.23;;;1.50;;
16813;SDS011;8524;57.650;11.926;2023-05-07T12:06:30;2.63;;;1.40;;
16813;SDS011;8524;57.650;11.926;2023-05-07T12:08:58;2.00;;;1.77;;
16813;SDS011;8524;57.650;11.926;2023-05-07T12:11:26;1.70;;;1.40;;
16813;SDS011;8524;57.650;11.926;2023-05-07T12:13:53;2.20;;;1.47;;
16813;SDS011;8524;57.650;11.926;2023-05-07T12:16:21;2.07;;;1.30;;
16813;SDS011;8524;57.650;11.926;2023-05-07T12:18:50;1.87;;;1.40;;
16813;SDS011;8524;57.650;11.926;2023-05-07T12:21:20;3.07;;;1.60;;
16813;SDS011;8524;57.650;11.926;2023-05-07T12:23:47;2.17;;;1.40;;
16813;SDS011;8524;57.650;11.926;2023-05-07T12:26:16;1.47;;;1.37;;
16813;SDS011;8524;57.650;11.926;2023-05-07T12:28:45;2.67;;;1.70;;
16813;SDS011;8524;57.650;11.926;2023-05-07T12:31:13;1.73;;;1.30;;
16813;SDS011;8524;57.650;11.926;2023-05-07T12:33:41;2.57;;;1.50;;
16813;SDS011;8524;57.650;11.926;2023-05-07T12:36:08;2.93;;;1.50;;
16813;SDS011;8524;57.650;11.926;2023-05-07T12:38:38;1.60;;;1.50;;
16813;SDS011;8524;57.650;11.926;2023-05-07T12:41:06;2.20;;;1.33;;
16813;SDS011;8524;57.650;11.926;2023-05-07T12:43:36;1.90;;;1.23;;
16813;SDS011;8524;57.650;11.926;2023-05-07T12:46:04;1.93;;;1.50;;
16813;SDS011;8524;57.650;11.926;2023-05-07T12:48:32;2.37;;;1.60;;
16813;SDS011;8524;57.650;11.926;2023-05-07T12:51:00;1.60;;;1.30;;
16813;SDS011;8524;57.650;11.926;2023-05-07T12:53:28;2.20;;;1.60;;
16813;SDS011;8524;57.650;11.926;2023-05-07T12:55:57;1.80;;;1.33;;
16813;SDS011;8524;57.650;11.926;2023-05-07T12:58:25;1.97;;;1.40;;
16813;SDS011;8524;57.650;11.926;2023-05-07T13:00:55;1.93;;;1.50;;
16813;SDS011;8524;57.650;11.926;2023-05-07T13:03:25;1.83;;;1.57;;
16813;SDS011;8524;57.650;11.926;2023-05-07T13:05:54;2.47;;;1.43;;
16813;SDS011;8524;57.650;11.926;2023-05-07T13:08:29;1.90;;;1.37;;
16813;SDS011;8524;57.650;11.926;2023-05-07T13:10:58;2.00;;;1.60;;
16813;SDS011;8524;57.650;11.926;2023-05-07T13:13:28;2.60;;;1.60;;
16813;SDS011;8524;57.650;11.926;2023-05-07T13:15:57;2.27;;;1.40;;
16813;SDS011;8524;57.650;11.926;2023-05-07T13:18:24;3.33;;;1.57;;
16813;SDS011;8524;57.650;11.926;2023-05-07T13:20:52;2.60;;;1.40;;
16813;SDS011;8524;57.650;11.926;2023-05-07T13:23:19;2.20;;;1.47;;
16813;SDS011;8524;57.650;11.926;2023-05-07T13:25:46;1.77;;;1.67;;
16813;SDS011;8524;57.650;11.926;2023-05-07T13:28:13;1.70;;;1.60;;
16813;SDS011;8524;57.650;11.926;2023-05-07T13:30:40;2.80;;;1.70;;
16813;SDS011;8524;57.650;11.926;2023-05-07T13:33:09;1.60;;;1.50;;
16813;SDS011;8524;57.650;11.926;2023-05-07T13:35:36;2.10;;;1.90;;
16813;SDS011;8524;57.650;11.926;2023-05-07T13:38:03;2.63;;;1.40;;
16813;SDS011;8524;57.650;11.926;2023-05-07T13:40:30;1.80;;;1.63;;
16813;SDS011;8524;57.650;11.926;2023-05-07T13:42:57;2.83;;;1.70;;
16813;SDS011;8524;57.650;11.926;2023-05-07T13:45:25;2.47;;;1.87;;
16813;SDS011;8524;57.650;11.926;2023-05-07T13:47:54;2.83;;;1.73;;
16813;SDS011;8524;57.650;11.926;2023-05-07T13:50:23;2.30;;;2.03;;
16813;SDS011;8524;57.650;11.926;2023-05-07T13:52:51;2.67;;;2.00;;
16813;SDS011;8524;57.650;11.926;2023-05-07T13:55:19;2.00;;;1.67;;
16813;SDS011;8524;57.650;11.926;2023-05-07T13:57:47;1.70;;;1.60;;
16813;SDS011;8524;57.650;11.926;2023-05-07T14:00:20;2.00;;;1.80;;
16813;SDS011;8524;57.650;11.926;2023-05-07T14:02:47;2.30;;;1.60;;
16813;SDS011;8524;57.650;11.926;2023-05-07T14:05:14;1.80;;;1.70;;
16813;SDS011;8524;57.650;11.926;2023-05-07T14:07:42;2.60;;;1.80;;
16813;SDS011;8524;57.650;11.926;2023-05-07T14:10:10;4.20;;;1.93;;
16813;SDS011;8524;57.650;11.926;2023-05-07T14:12:38;2.40;;;2.03;;
16813;SDS011;8524;57.650;11.926;2023-05-07T14:15:05;2.92;;;2.00;;
16813;SDS011;8524;57.650;11.926;2023-05-07T14:17:33;2.00;;;1.90;;
16813;SDS011;8524;57.650;11.926;2023-05-07T14:20:00;2.37;;;2.00;;
16813;SDS011;8524;57.650;11.926;2023-05-07T14:22:27;1.80;;;1.70;;
16813;SDS011;8524;57.650;11.926;2023-05-07T14:24:55;1.90;;;1.80;;
16813;SDS011;8524;57.650;11.926;2023-05-07T14:27:22;2.57;;;1.60;;
16813;SDS011;8524;57.650;11.926;2023-05-07T14:29:49;2.20;;;1.97;;
16813;SDS011;8524;57.650;11.926;2023-05-07T14:32:17;2.20;;;1.63;;
16813;SDS011;8524;57.650;11.926;2023-05-07T14:34:44;2.20;;;1.97;;
16813;SDS011;8524;57.650;11.926;2023-05-07T14:37:11;2.50;;;1.80;;
16813;SDS011;8524;57.650;11.926;2023-05-07T14:39:38;1.80;;;1.70;;
16813;SDS011;8524;57.650;11.926;2023-05-07T14:42:07;2.47;;;2.20;;
16813;SDS011;8524;57.650;11.926;2023-05-07T14:44:34;3.03;;;2.10;;
16813;SDS011;8524;57.650;11.926;2023-05-07T14:47:01;2.27;;;2.00;;
16813;SDS011;8524;57.650;11.926;2023-05-07T14:49:28;1.80;;;1.70;;
16813;SDS011;8524;57.650;11.926;2023-05-07T14:51:57;1.70;;;1.60;;
16813;SDS011;8524;57.650;11.926;2023-05-07T14:54:25;1.80;;;1.67;;
16813;SDS011;8524;57.650;11.926;2023-05-07T14:56:52;1.80;;;1.70;;
16813;SDS011;8524;57.650;11.926;2023-05-07T14:59:20;2.20;;;1.80;;
16813;SDS011;8524;57.650;11.926;2023-05-07T15:01:49;1.80;;;1.70;;